sensor_id;sensor_type;location;lat;lon;timestamp;P1;durP1;ratioP1;P2;durP2;ratioP2
66585;SDS011;53444;45.822;16.092;2023-11-22T00:01:01;6.07;;;3.45;;
66585;SDS011;53444;45.822;16.092;2023-11-22T00:03:28;7.45;;;3.53;;
66585;SDS011;53444;45.822;16.092;2023-11-22T00:05:55;5.15;;;3.22;;
66585;SDS011;53444;45.822;16.092;2023-11-22T00:08:21;5.97;;;3.63;;
66585;SDS011;53444;45.822;16.092;2023-11-22T00:10:50;5.17;;;3.10;;
66585;SDS011;53444;45.822;16.092;2023-11-22T00:13:17;7.97;;;3.30;;
66585;SDS011;53444;45.822;16.092;2023-11-22T00:15:43;6.65;;;3.28;;
66585;SDS011;53444;45.822;16.092;2023-11-22T00:18:10;4.93;;;3.05;;
66585;SDS011;53444;45.822;16.092;2023-11-22T00:20:37;6.45;;;3.75;;
66585;SDS011;53444;45.822;16.092;2023-11-22T00:23:04;6.57;;;3.03;;
66585;SDS011;53444;45.822;16.092;2023-11-22T00:25:31;7.70;;;3.55;;
66585;SDS011;53444;45.822;16.092;2023-11-22T00:28:01;7.88;;;3.20;;
66585;SDS011;53444;45.822;16.092;2023-11-22T00:30:31;5.00;;;3.08;;
66585;SDS011;53444;45.822;16.092;2023-11-22T00:32:57;7.93;;;4.00;;
66585;SDS011;53444;45.822;16.092;2023-11-22T00:35:24;5.60;;;3.00;;
66585;SDS011;53444;45.822;16.092;2023-11-22T00:37:51;8.00;;;3.55;;
66585;SDS011;53444;45.822;16.092;2023-11-22T00:40:18;7.45;;;3.22;;
66585;SDS011;53444;45.822;16.092;2023-11-22T00:42:45;5.20;;;2.95;;
66585;SDS011;53444;45.822;16.092;2023-11-22T00:45:13;7.88;;;3.47;;
66585;SDS011;53444;45.822;16.092;2023-11-22T00:47:40;4.67;;;2.93;;
66585;SDS011;53444;45.822;16.092;2023-11-22T00:50:08;4.78;;;2.70;;
66585;SDS011;53444;45.822;16.092;2023-11-22T00:52:35;5.43;;;2.85;;
66585;SDS011;53444;45.822;16.092;2023-11-22T00:55:02;5.85;;;2.50;;
66585;SDS011;53444;45.822;16.092;2023-11-22T00:57:30;4.60;;;2.80;;
66585;SDS011;53444;45.822;16.092;2023-11-22T00:59:57;4.57;;;2.80;;
66585;SDS011;53444;45.822;16.092;2023-11-22T01:02:25;5.03;;;2.78;;
66585;SDS011;53444;45.822;16.092;2023-11-22T01:04:52;4.15;;;2.63;;
66585;SDS011;53444;45.822;16.092;2023-11-22T01:07:18;5.25;;;3.00;;
66585;SDS011;53444;45.822;16.092;2023-11-22T01:09:45;4.60;;;2.70;;
66585;SDS011;53444;45.822;16.092;2023-11-22T01:12:12;4.87;;;2.70;;
66585;SDS011;53444;45.822;16.092;2023-11-22T01:14:38;4.15;;;2.50;;
66585;SDS011;53444;45.822;16.092;2023-11-22T01:17:05;4.32;;;2.53;;
66585;SDS011;53444;45.822;16.092;2023-11-22T01:19:33;6.07;;;2.58;;
66585;SDS011;53444;45.822;16.092;2023-11-22T01:22:00;5.10;;;2.83;;
66585;SDS011;53444;45.822;16.092;2023-11-22T01:24:26;5.67;;;3.00;;
66585;SDS011;53444;45.822;16.092;2023-11-22T01:26:54;5.93;;;2.78;;
66585;SDS011;53444;45.822;16.092;2023-11-22T01:29:21;7.25;;;3.38;;
66585;SDS011;53444;45.822;16.092;2023-11-22T01:31:48;8.43;;;3.13;;
66585;SDS011;53444;45.822;16.092;2023-11-22T01:34:15;6.00;;;3.50;;
66585;SDS011;53444;45.822;16.092;2023-11-22T01:36:43;7.93;;;3.70;;
66585;SDS011;53444;45.822;16.092;2023-11-22T01:39:10;9.27;;;3.00;;
66585;SDS011;53444;45.822;16.092;2023-11-22T01:41:38;7.57;;;3.42;;
66585;SDS011;53444;45.822;16.092;2023-11-22T01:44:07;5.60;;;3.30;;
66585;SDS011;53444;45.822;16.092;2023-11-22T01:46:34;6.35;;;3.08;;
66585;SDS011;53444;45.822;16.092;2023-11-22T01:49:01;6.07;;;3.10;;
66585;SDS011;53444;45.822;16.092;2023-11-22T01:51:28;4.60;;;2.88;;
66585;SDS011;53444;45.822;16.092;2023-11-22T01:53:56;4.88;;;2.92;;
66585;SDS011;53444;45.822;16.092;2023-11-22T01:56:25;6.22;;;2.95;;
66585;SDS011;53444;45.822;16.092;2023-11-22T01:58:53;4.28;;;2.58;;
66585;SDS011;53444;45.822;16.092;2023-11-22T02:01:21;5.23;;;2.60;;
66585;SDS011;53444;45.822;16.092;2023-11-22T02:03:48;5.15;;;2.80;;
66585;SDS011;53444;45.822;16.092;2023-11-22T02:06:17;5.25;;;2.78;;
66585;SDS011;53444;45.822;16.092;2023-11-22T02:08:44;3.85;;;2.67;;
66585;SDS011;53444;45.822;16.092;2023-11-22T02:11:12;5.72;;;2.83;;
66585;SDS011;53444;45.822;16.092;2023-11-22T02:13:39;5.10;;;2.53;;
66585;SDS011;53444;45.822;16.092;2023-11-22T02:16:05;4.85;;;2.47;;
66585;SDS011;53444;45.822;16.092;2023-11-22T02:18:32;4.38;;;2.58;;
66585;SDS011;53444;45.822;16.092;2023-11-22T02:21:00;4.60;;;2.70;;
66585;SDS011;53444;45.822;16.092;2023-11-22T02:23:28;4.43;;;2.60;;
66585;SDS011;53444;45.822;16.092;2023-11-22T02:25:55;5.70;;;2.70;;
66585;SDS011;53444;45.822;16.092;2023-11-22T02:28:21;3.88;;;2.28;;
66585;SDS011;53444;45.822;16.092;2023-11-22T02:30:48;4.72;;;2.40;;
66585;SDS011;53444;45.822;16.092;2023-11-22T02:33:15;5.78;;;2.63;;
66585;SDS011;53444;45.822;16.092;2023-11-22T02:35:42;4.20;;;2.60;;
66585;SDS011;53444;45.822;16.092;2023-11-22T02:38:09;5.20;;;2.17;;
66585;SDS011;53444;45.822;16.092;2023-11-22T02:40:37;4.85;;;2.30;;
66585;SDS011;53444;45.822;16.092;2023-11-22T02:43:03;4.88;;;2.30;;
66585;SDS011;53444;45.822;16.092;2023-11-22T02:45:34;8.00;;;2.95;;
66585;SDS011;53444;45.822;16.092;2023-11-22T02:48:01;5.10;;;2.42;;
66585;SDS011;53444;45.822;16.092;2023-11-22T02:50:29;4.97;;;2.60;;
66585;SDS011;53444;45.822;16.092;2023-11-22T02:52:57;5.53;;;2.53;;
66585;SDS011;53444;45.822;16.092;2023-11-22T02:55:24;4.45;;;2.90;;
66585;SDS011;53444;45.822;16.092;2023-11-22T02:57:52;4.90;;;3.00;;
66585;SDS011;53444;45.822;16.092;2023-11-22T03:00:19;3.75;;;2.63;;
66585;SDS011;53444;45.822;16.092;2023-11-22T03:02:46;5.03;;;2.60;;
66585;SDS011;53444;45.822;16.092;2023-11-22T03:05:18;4.70;;;2.65;;
66585;SDS011;53444;45.822;16.092;2023-11-22T03:07:45;4.78;;;2.38;;
66585;SDS011;53444;45.822;16.092;2023-11-22T03:10:12;4.97;;;2.80;;
66585;SDS011;53444;45.822;16.092;2023-11-22T03:12:39;5.75;;;3.17;;
66585;SDS011;53444;45.822;16.092;2023-11-22T03:15:08;5.93;;;2.80;;
66585;SDS011;53444;45.822;16.092;2023-11-22T03:17:35;5.43;;;3.00;;
66585;SDS011;53444;45.822;16.092;2023-11-22T03:20:04;5.10;;;3.25;;
66585;SDS011;53444;45.822;16.092;2023-11-22T03:22:34;4.85;;;2.85;;
66585;SDS011;53444;45.822;16.092;2023-11-22T03:25:01;6.05;;;3.00;;
66585;SDS011;53444;45.822;16.092;2023-11-22T03:27:28;6.00;;;3.10;;
66585;SDS011;53444;45.822;16.092;2023-11-22T03:29:55;6.82;;;2.50;;
66585;SDS011;53444;45.822;16.092;2023-11-22T03:32:23;6.07;;;3.00;;
66585;SDS011;53444;45.822;16.092;2023-11-22T03:34:50;5.32;;;2.75;;
66585;SDS011;53444;45.822;16.092;2023-11-22T03:37:17;5.32;;;3.15;;
66585;SDS011;53444;45.822;16.092;2023-11-22T03:39:44;5.00;;;2.93;;
66585;SDS011;53444;45.822;16.092;2023-11-22T03:42:13;7.13;;;2.88;;
66585;SDS011;53444;45.822;16.092;2023-11-22T03:44:41;5.38;;;2.67;;
66585;SDS011;53444;45.822;16.092;2023-11-22T03:47:08;5.50;;;2.97;;
66585;SDS011;53444;45.822;16.092;2023-11-22T03:49:37;6.38;;;3.53;;
66585;SDS011;53444;45.822;16.092;2023-11-22T03:52:04;6.97;;;3.33;;
66585;SDS011;53444;45.822;16.092;2023-11-22T03:54:31;5.50;;;3.05;;
66585;SDS011;53444;45.822;16.092;2023-11-22T03:56:58;5.10;;;2.97;;
66585;SDS011;53444;45.822;16.092;2023-11-22T03:59:25;6.57;;;3.40;;
66585;SDS011;53444;45.822;16.092;2023-11-22T04:01:51;4.95;;;3.30;;
66585;SDS011;53444;45.822;16.092;2023-11-22T04:04:18;8.43;;;3.33;;
66585;SDS011;53444;45.822;16.092;2023-11-22T04:06:47;6.32;;;3.42;;
66585;SDS011;53444;45.822;16.092;2023-11-22T04:09:14;8.52;;;3.80;;
66585;SDS011;53444;45.822;16.092;2023-11-22T04:11:42;6.53;;;3.40;;
66585;SDS011;53444;45.822;16.092;2023-11-22T04:14:08;6.47;;;3.17;;
66585;SDS011;53444;45.822;16.092;2023-11-22T04:16:35;6.03;;;2.97;;
66585;SDS011;53444;45.822;16.092;2023-11-22T04:19:02;8.77;;;3.38;;
66585;SDS011;53444;45.822;16.092;2023-11-22T04:21:29;6.20;;;3.75;;
66585;SDS011;53444;45.822;16.092;2023-11-22T04:23:57;5.45;;;3.15;;
66585;SDS011;53444;45.822;16.092;2023-11-22T04:26:23;8.13;;;3.35;;
66585;SDS011;53444;45.822;16.092;2023-11-22T04:28:51;6.37;;;3.23;;
66585;SDS011;53444;45.822;16.092;2023-11-22T04:31:18;6.28;;;3.38;;
66585;SDS011;53444;45.822;16.092;2023-11-22T04:33:45;7.65;;;3.35;;
66585;SDS011;53444;45.822;16.092;2023-11-22T04:36:11;5.75;;;3.28;;
66585;SDS011;53444;45.822;16.092;2023-11-22T04:38:38;6.40;;;3.63;;
66585;SDS011;53444;45.822;16.092;2023-11-22T04:41:06;9.27;;;3.73;;
66585;SDS011;53444;45.822;16.092;2023-11-22T04:43:33;9.90;;;3.58;;
66585;SDS011;53444;45.822;16.092;2023-11-22T04:46:00;7.78;;;4.30;;
66585;SDS011;53444;45.822;16.092;2023-11-22T04:48:26;6.97;;;3.90;;
66585;SDS011;53444;45.822;16.092;2023-11-22T04:50:53;7.20;;;4.05;;
66585;SDS011;53444;45.822;16.092;2023-11-22T04:53:20;9.40;;;4.47;;
66585;SDS011;53444;45.822;16.092;2023-11-22T04:55:46;6.03;;;3.97;;
66585;SDS011;53444;45.822;16.092;2023-11-22T04:58:15;7.28;;;4.07;;
66585;SDS011;53444;45.822;16.092;2023-11-22T05:00:42;9.35;;;4.28;;
66585;SDS011;53444;45.822;16.092;2023-11-22T05:03:08;6.75;;;3.65;;
66585;SDS011;53444;45.822;16.092;2023-11-22T05:05:35;8.97;;;4.00;;
66585;SDS011;53444;45.822;16.092;2023-11-22T05:08:02;9.07;;;3.90;;
66585;SDS011;53444;45.822;16.092;2023-11-22T05:10:29;7.88;;;4.40;;
66585;SDS011;53444;45.822;16.092;2023-11-22T05:12:55;8.13;;;4.07;;
66585;SDS011;53444;45.822;16.092;2023-11-22T05:15:26;8.80;;;4.30;;
66585;SDS011;53444;45.822;16.092;2023-11-22T05:17:52;7.97;;;3.90;;
66585;SDS011;53444;45.822;16.092;2023-11-22T05:20:19;7.53;;;4.32;;
66585;SDS011;53444;45.822;16.092;2023-11-22T05:22:46;9.40;;;5.35;;
66585;SDS011;53444;45.822;16.092;2023-11-22T05:25:16;7.40;;;4.53;;
66585;SDS011;53444;45.822;16.092;2023-11-22T05:27:44;9.38;;;4.90;;
66585;SDS011;53444;45.822;16.092;2023-11-22T05:30:11;5.90;;;3.67;;
66585;SDS011;53444;45.822;16.092;2023-11-22T05:32:42;6.63;;;3.88;;
66585;SDS011;53444;45.822;16.092;2023-11-22T05:35:09;8.25;;;4.28;;
66585;SDS011;53444;45.822;16.092;2023-11-22T05:37:36;8.68;;;4.20;;
66585;SDS011;53444;45.822;16.092;2023-11-22T05:40:04;7.22;;;4.28;;
66585;SDS011;53444;45.822;16.092;2023-11-22T05:42:31;9.87;;;4.50;;
66585;SDS011;53444;45.822;16.092;2023-11-22T05:45:00;8.20;;;4.50;;
66585;SDS011;53444;45.822;16.092;2023-11-22T05:47:27;7.40;;;4.30;;
66585;SDS011;53444;45.822;16.092;2023-11-22T05:49:55;7.30;;;4.68;;
66585;SDS011;53444;45.822;16.092;2023-11-22T05:52:23;9.18;;;5.00;;
66585;SDS011;53444;45.822;16.092;2023-11-22T05:54:50;8.73;;;4.40;;
66585;SDS011;53444;45.822;16.092;2023-11-22T05:57:17;9.13;;;4.38;;
66585;SDS011;53444;45.822;16.092;2023-11-22T05:59:45;8.98;;;5.45;;
66585;SDS011;53444;45.822;16.092;2023-11-22T06:02:13;12.13;;;5.10;;
66585;SDS011;53444;45.822;16.092;2023-11-22T06:04:40;8.48;;;5.18;;
66585;SDS011;53444;45.822;16.092;2023-11-22T06:07:09;9.97;;;4.40;;
66585;SDS011;53444;45.822;16.092;2023-11-22T06:09:36;8.73;;;4.50;;
66585;SDS011;53444;45.822;16.092;2023-11-22T06:12:06;10.32;;;5.03;;
66585;SDS011;53444;45.822;16.092;2023-11-22T06:14:39;10.30;;;4.45;;
66585;SDS011;53444;45.822;16.092;2023-11-22T06:17:07;9.10;;;5.18;;
66585;SDS011;53444;45.822;16.092;2023-11-22T06:19:34;10.87;;;4.77;;
66585;SDS011;53444;45.822;16.092;2023-11-22T06:22:02;10.48;;;5.20;;
66585;SDS011;53444;45.822;16.092;2023-11-22T06:24:33;8.50;;;4.55;;
66585;SDS011;53444;45.822;16.092;2023-11-22T06:27:02;10.02;;;4.85;;
66585;SDS011;53444;45.822;16.092;2023-11-22T06:29:29;8.80;;;5.13;;
66585;SDS011;53444;45.822;16.092;2023-11-22T06:31:56;9.07;;;5.00;;
66585;SDS011;53444;45.822;16.092;2023-11-22T06:34:23;10.77;;;4.90;;
66585;SDS011;53444;45.822;16.092;2023-11-22T06:36:50;10.95;;;5.30;;
66585;SDS011;53444;45.822;16.092;2023-11-22T06:39:17;10.68;;;5.63;;
66585;SDS011;53444;45.822;16.092;2023-11-22T06:41:46;10.80;;;5.47;;
66585;SDS011;53444;45.822;16.092;2023-11-22T06:44:13;9.73;;;5.33;;
66585;SDS011;53444;45.822;16.092;2023-11-22T06:46:40;11.80;;;5.45;;
66585;SDS011;53444;45.822;16.092;2023-11-22T06:49:07;9.05;;;5.30;;
66585;SDS011;53444;45.822;16.092;2023-11-22T06:51:43;9.95;;;5.35;;
66585;SDS011;53444;45.822;16.092;2023-11-22T06:54:34;11.50;;;5.78;;
66585;SDS011;53444;45.822;16.092;2023-11-22T06:57:06;10.17;;;5.67;;
66585;SDS011;53444;45.822;16.092;2023-11-22T06:59:33;9.93;;;5.07;;
66585;SDS011;53444;45.822;16.092;2023-11-22T07:02:01;12.32;;;6.60;;
66585;SDS011;53444;45.822;16.092;2023-11-22T07:04:28;10.65;;;6.13;;
66585;SDS011;53444;45.822;16.092;2023-11-22T07:06:57;10.55;;;5.85;;
66585;SDS011;53444;45.822;16.092;2023-11-22T07:09:26;13.33;;;6.00;;
66585;SDS011;53444;45.822;16.092;2023-11-22T07:11:54;14.07;;;7.75;;
66585;SDS011;53444;45.822;16.092;2023-11-22T07:14:24;13.40;;;7.30;;
66585;SDS011;53444;45.822;16.092;2023-11-22T07:16:51;13.57;;;6.50;;
66585;SDS011;53444;45.822;16.092;2023-11-22T07:19:18;10.32;;;5.90;;
66585;SDS011;53444;45.822;16.092;2023-11-22T07:21:45;11.27;;;6.13;;
66585;SDS011;53444;45.822;16.092;2023-11-22T07:24:13;11.15;;;6.32;;
66585;SDS011;53444;45.822;16.092;2023-11-22T07:26:40;14.75;;;6.43;;
66585;SDS011;53444;45.822;16.092;2023-11-22T07:29:08;12.98;;;6.72;;
66585;SDS011;53444;45.822;16.092;2023-11-22T07:31:43;14.40;;;7.15;;
66585;SDS011;53444;45.822;16.092;2023-11-22T07:34:09;13.27;;;6.80;;
66585;SDS011;53444;45.822;16.092;2023-11-22T07:36:38;11.50;;;6.00;;
66585;SDS011;53444;45.822;16.092;2023-11-22T07:39:06;11.88;;;6.32;;
66585;SDS011;53444;45.822;16.092;2023-11-22T07:41:33;15.23;;;7.28;;
66585;SDS011;53444;45.822;16.092;2023-11-22T07:44:00;16.63;;;8.55;;
66585;SDS011;53444;45.822;16.092;2023-11-22T07:46:27;14.97;;;7.90;;
66585;SDS011;53444;45.822;16.092;2023-11-22T07:48:55;10.82;;;6.65;;
66585;SDS011;53444;45.822;16.092;2023-11-22T07:51:22;12.50;;;7.00;;
66585;SDS011;53444;45.822;16.092;2023-11-22T07:53:50;10.45;;;5.88;;
66585;SDS011;53444;45.822;16.092;2023-11-22T07:56:16;13.70;;;7.25;;
66585;SDS011;53444;45.822;16.092;2023-11-22T07:58:43;9.97;;;6.13;;
66585;SDS011;53444;45.822;16.092;2023-11-22T08:01:10;11.13;;;6.10;;
66585;SDS011;53444;45.822;16.092;2023-11-22T08:03:39;11.48;;;5.40;;
66585;SDS011;53444;45.822;16.092;2023-11-22T08:06:10;9.60;;;5.78;;
66585;SDS011;53444;45.822;16.092;2023-11-22T08:08:38;11.20;;;5.95;;
66585;SDS011;53444;45.822;16.092;2023-11-22T08:11:05;10.27;;;5.30;;
66585;SDS011;53444;45.822;16.092;2023-11-22T08:13:39;9.25;;;5.35;;
66585;SDS011;53444;45.822;16.092;2023-11-22T08:16:08;7.45;;;4.88;;
66585;SDS011;53444;45.822;16.092;2023-11-22T08:18:35;9.88;;;5.03;;
66585;SDS011;53444;45.822;16.092;2023-11-22T08:21:01;10.02;;;5.00;;
66585;SDS011;53444;45.822;16.092;2023-11-22T08:23:33;11.03;;;5.30;;
66585;SDS011;53444;45.822;16.092;2023-11-22T08:26:00;9.40;;;4.78;;
66585;SDS011;53444;45.822;16.092;2023-11-22T08:28:27;10.63;;;5.10;;
66585;SDS011;53444;45.822;16.092;2023-11-22T08:30:55;9.40;;;5.15;;
66585;SDS011;53444;45.822;16.092;2023-11-22T08:33:22;9.40;;;4.80;;
66585;SDS011;53444;45.822;16.092;2023-11-22T08:35:49;11.50;;;5.80;;
66585;SDS011;53444;45.822;16.092;2023-11-22T08:38:26;10.30;;;5.38;;
66585;SDS011;53444;45.822;16.092;2023-11-22T08:41:00;10.23;;;5.25;;
66585;SDS011;53444;45.822;16.092;2023-11-22T08:43:30;9.85;;;5.22;;
66585;SDS011;53444;45.822;16.092;2023-11-22T08:45:57;11.77;;;5.93;;
66585;SDS011;53444;45.822;16.092;2023-11-22T08:48:24;10.97;;;5.33;;
66585;SDS011;53444;45.822;16.092;2023-11-22T08:50:51;11.40;;;5.80;;
66585;SDS011;53444;45.822;16.092;2023-11-22T08:53:20;11.90;;;6.28;;
66585;SDS011;53444;45.822;16.092;2023-11-22T08:55:47;10.40;;;5.95;;
66585;SDS011;53444;45.822;16.092;2023-11-22T08:58:15;12.85;;;6.22;;
66585;SDS011;53444;45.822;16.092;2023-11-22T09:00:42;8.37;;;5.10;;
66585;SDS011;53444;45.822;16.092;2023-11-22T09:03:10;9.27;;;5.22;;
66585;SDS011;53444;45.822;16.092;2023-11-22T09:05:38;9.30;;;5.20;;
66585;SDS011;53444;45.822;16.092;2023-11-22T09:08:04;8.38;;;5.10;;
66585;SDS011;53444;45.822;16.092;2023-11-22T09:10:31;11.35;;;6.18;;
66585;SDS011;53444;45.822;16.092;2023-11-22T09:12:58;6.87;;;4.40;;
66585;SDS011;53444;45.822;16.092;2023-11-22T09:15:26;8.75;;;4.30;;
66585;SDS011;53444;45.822;16.092;2023-11-22T09:17:54;8.75;;;4.50;;
66585;SDS011;53444;45.822;16.092;2023-11-22T09:20:22;6.50;;;3.92;;
66585;SDS011;53444;45.822;16.092;2023-11-22T09:22:49;7.32;;;3.95;;
66585;SDS011;53444;45.822;16.092;2023-11-22T09:25:17;6.97;;;4.23;;
66585;SDS011;53444;45.822;16.092;2023-11-22T09:27:48;8.07;;;4.53;;
66585;SDS011;53444;45.822;16.092;2023-11-22T09:30:18;7.65;;;4.95;;
66585;SDS011;53444;45.822;16.092;2023-11-22T09:32:58;7.68;;;4.30;;
66585;SDS011;53444;45.822;16.092;2023-11-22T09:35:27;6.93;;;4.20;;
66585;SDS011;53444;45.822;16.092;2023-11-22T09:37:56;6.27;;;3.70;;
66585;SDS011;53444;45.822;16.092;2023-11-22T09:40:23;9.77;;;4.43;;
66585;SDS011;53444;45.822;16.092;2023-11-22T09:42:50;8.32;;;4.20;;
66585;SDS011;53444;45.822;16.092;2023-11-22T09:45:18;8.43;;;4.10;;
66585;SDS011;53444;45.822;16.092;2023-11-22T09:47:45;6.22;;;3.70;;
66585;SDS011;53444;45.822;16.092;2023-11-22T09:50:17;5.83;;;3.67;;
66585;SDS011;53444;45.822;16.092;2023-11-22T09:52:49;8.05;;;4.15;;
66585;SDS011;53444;45.822;16.092;2023-11-22T09:55:19;8.00;;;4.70;;
66585;SDS011;53444;45.822;16.092;2023-11-22T09:57:47;7.13;;;4.53;;
66585;SDS011;53444;45.822;16.092;2023-11-22T10:00:16;6.10;;;3.97;;
66585;SDS011;53444;45.822;16.092;2023-11-22T10:02:43;6.30;;;4.20;;
66585;SDS011;53444;45.822;16.092;2023-11-22T10:05:10;7.80;;;4.57;;
66585;SDS011;53444;45.822;16.092;2023-11-22T10:07:39;5.90;;;3.60;;
66585;SDS011;53444;45.822;16.092;2023-11-22T10:10:06;6.57;;;3.50;;
66585;SDS011;53444;45.822;16.092;2023-11-22T10:12:36;7.28;;;3.60;;
66585;SDS011;53444;45.822;16.092;2023-11-22T10:15:12;6.17;;;3.00;;
66585;SDS011;53444;45.822;16.092;2023-11-22T10:17:39;5.65;;;3.13;;
66585;SDS011;53444;45.822;16.092;2023-11-22T10:20:07;6.22;;;3.20;;
66585;SDS011;53444;45.822;16.092;2023-11-22T10:22:46;4.88;;;3.38;;
66585;SDS011;53444;45.822;16.092;2023-11-22T10:25:14;7.57;;;3.72;;
66585;SDS011;53444;45.822;16.092;2023-11-22T10:27:43;7.80;;;3.30;;
66585;SDS011;53444;45.822;16.092;2023-11-22T10:30:11;6.80;;;3.30;;
66585;SDS011;53444;45.822;16.092;2023-11-22T10:32:40;5.65;;;3.67;;
66585;SDS011;53444;45.822;16.092;2023-11-22T10:35:07;5.25;;;2.90;;
66585;SDS011;53444;45.822;16.092;2023-11-22T10:37:35;6.40;;;4.10;;
66585;SDS011;53444;45.822;16.092;2023-11-22T10:40:03;6.43;;;4.17;;
66585;SDS011;53444;45.822;16.092;2023-11-22T10:42:35;6.15;;;3.95;;
66585;SDS011;53444;45.822;16.092;2023-11-22T10:45:04;5.18;;;4.13;;
66585;SDS011;53444;45.822;16.092;2023-11-22T10:47:33;8.23;;;4.78;;
66585;SDS011;53444;45.822;16.092;2023-11-22T10:50:04;6.55;;;4.10;;
66585;SDS011;53444;45.822;16.092;2023-11-22T10:52:33;5.83;;;3.90;;
66585;SDS011;53444;45.822;16.092;2023-11-22T10:55:04;8.50;;;3.88;;
66585;SDS011;53444;45.822;16.092;2023-11-22T10:57:32;5.75;;;3.85;;
66585;SDS011;53444;45.822;16.092;2023-11-22T11:00:03;8.68;;;5.22;;
66585;SDS011;53444;45.822;16.092;2023-11-22T11:02:33;9.77;;;5.18;;
66585;SDS011;53444;45.822;16.092;2023-11-22T11:05:05;7.67;;;4.80;;
66585;SDS011;53444;45.822;16.092;2023-11-22T11:07:43;7.93;;;4.20;;
66585;SDS011;53444;45.822;16.092;2023-11-22T11:10:16;9.45;;;4.20;;
66585;SDS011;53444;45.822;16.092;2023-11-22T11:12:45;8.20;;;4.20;;
66585;SDS011;53444;45.822;16.092;2023-11-22T11:15:13;7.15;;;4.03;;
66585;SDS011;53444;45.822;16.092;2023-11-22T11:17:41;8.47;;;4.03;;
66585;SDS011;53444;45.822;16.092;2023-11-22T11:20:09;5.28;;;3.30;;
66585;SDS011;53444;45.822;16.092;2023-11-22T11:22:38;8.23;;;3.63;;
66585;SDS011;53444;45.822;16.092;2023-11-22T11:25:05;5.07;;;2.70;;
66585;SDS011;53444;45.822;16.092;2023-11-22T11:27:35;5.82;;;3.45;;
66585;SDS011;53444;45.822;16.092;2023-11-22T11:30:01;5.43;;;3.40;;
66585;SDS011;53444;45.822;16.092;2023-11-22T11:33:08;6.95;;;3.78;;
66585;SDS011;53444;45.822;16.092;2023-11-22T11:35:38;5.78;;;3.85;;
66585;SDS011;53444;45.822;16.092;2023-11-22T11:38:05;10.75;;;3.38;;
66585;SDS011;53444;45.822;16.092;2023-11-22T11:40:34;5.93;;;3.55;;
66585;SDS011;53444;45.822;16.092;2023-11-22T11:43:04;5.93;;;3.50;;
66585;SDS011;53444;45.822;16.092;2023-11-22T11:45:34;6.28;;;3.30;;
66585;SDS011;53444;45.822;16.092;2023-11-22T11:48:04;6.22;;;3.40;;
66585;SDS011;53444;45.822;16.092;2023-11-22T11:50:31;5.18;;;3.28;;
66585;SDS011;53444;45.822;16.092;2023-11-22T11:52:58;6.70;;;3.50;;
66585;SDS011;53444;45.822;16.092;2023-11-22T11:55:25;6.63;;;3.30;;
66585;SDS011;53444;45.822;16.092;2023-11-22T11:57:53;6.35;;;3.25;;
66585;SDS011;53444;45.822;16.092;2023-11-22T12:00:21;6.20;;;3.92;;
66585;SDS011;53444;45.822;16.092;2023-11-22T12:02:49;6.95;;;3.67;;
66585;SDS011;53444;45.822;16.092;2023-11-22T12:05:18;7.03;;;3.60;;
66585;SDS011;53444;45.822;16.092;2023-11-22T12:07:45;5.33;;;3.47;;
66585;SDS011;53444;45.822;16.092;2023-11-22T12:10:12;6.45;;;3.15;;
66585;SDS011;53444;45.822;16.092;2023-11-22T12:12:39;6.90;;;3.50;;
66585;SDS011;53444;45.822;16.092;2023-11-22T12:15:09;4.95;;;3.25;;
66585;SDS011;53444;45.822;16.092;2023-11-22T12:17:37;4.93;;;3.10;;
66585;SDS011;53444;45.822;16.092;2023-11-22T12:20:11;4.43;;;2.67;;
66585;SDS011;53444;45.822;16.092;2023-11-22T12:22:39;4.80;;;2.90;;
66585;SDS011;53444;45.822;16.092;2023-11-22T12:25:07;5.13;;;2.88;;
66585;SDS011;53444;45.822;16.092;2023-11-22T12:27:37;4.53;;;2.88;;
66585;SDS011;53444;45.822;16.092;2023-11-22T12:30:06;4.65;;;3.03;;
66585;SDS011;53444;45.822;16.092;2023-11-22T12:32:33;5.33;;;2.83;;
66585;SDS011;53444;45.822;16.092;2023-11-22T12:35:02;4.43;;;2.70;;
66585;SDS011;53444;45.822;16.092;2023-11-22T12:37:34;6.40;;;3.28;;
66585;SDS011;53444;45.822;16.092;2023-11-22T12:40:11;5.00;;;3.20;;
66585;SDS011;53444;45.822;16.092;2023-11-22T12:42:46;5.30;;;2.85;;
66585;SDS011;53444;45.822;16.092;2023-11-22T12:45:17;7.27;;;3.83;;
66585;SDS011;53444;45.822;16.092;2023-11-22T12:47:46;5.10;;;3.00;;
66585;SDS011;53444;45.822;16.092;2023-11-22T12:53:11;5.55;;;3.17;;
66585;SDS011;53444;45.822;16.092;2023-11-22T12:55:41;4.82;;;2.70;;
66585;SDS011;53444;45.822;16.092;2023-11-22T12:58:09;4.05;;;2.63;;
66585;SDS011;53444;45.822;16.092;2023-11-22T13:00:37;5.53;;;2.97;;
66585;SDS011;53444;45.822;16.092;2023-11-22T13:03:05;5.10;;;2.50;;
66585;SDS011;53444;45.822;16.092;2023-11-22T13:05:33;7.20;;;4.78;;
66585;SDS011;53444;45.822;16.092;2023-11-22T13:07:59;7.53;;;3.70;;
66585;SDS011;53444;45.822;16.092;2023-11-22T13:10:27;6.28;;;3.58;;
66585;SDS011;53444;45.822;16.092;2023-11-22T13:12:54;5.03;;;3.30;;
66585;SDS011;53444;45.822;16.092;2023-11-22T13:15:21;7.47;;;4.07;;
66585;SDS011;53444;45.822;16.092;2023-11-22T13:17:51;8.10;;;3.92;;
66585;SDS011;53444;45.822;16.092;2023-11-22T13:20:20;4.95;;;3.05;;
66585;SDS011;53444;45.822;16.092;2023-11-22T13:22:48;6.35;;;3.30;;
66585;SDS011;53444;45.822;16.092;2023-11-22T13:25:15;8.27;;;4.70;;
66585;SDS011;53444;45.822;16.092;2023-11-22T13:27:45;5.30;;;3.10;;
66585;SDS011;53444;45.822;16.092;2023-11-22T13:30:13;7.55;;;4.38;;
66585;SDS011;53444;45.822;16.092;2023-11-22T13:32:40;5.25;;;3.28;;
66585;SDS011;53444;45.822;16.092;2023-11-22T13:35:08;5.78;;;3.80;;
66585;SDS011;53444;45.822;16.092;2023-11-22T13:37:39;5.82;;;3.60;;
66585;SDS011;53444;45.822;16.092;2023-11-22T13:40:08;6.50;;;3.35;;
66585;SDS011;53444;45.822;16.092;2023-11-22T13:42:39;6.38;;;3.60;;
66585;SDS011;53444;45.822;16.092;2023-11-22T13:45:09;5.57;;;3.50;;
66585;SDS011;53444;45.822;16.092;2023-11-22T13:47:36;5.03;;;2.95;;
66585;SDS011;53444;45.822;16.092;2023-11-22T13:50:03;6.00;;;4.18;;
66585;SDS011;53444;45.822;16.092;2023-11-22T13:52:31;7.53;;;3.92;;
66585;SDS011;53444;45.822;16.092;2023-11-22T13:54:58;4.43;;;3.30;;
66585;SDS011;53444;45.822;16.092;2023-11-22T13:57:26;7.00;;;4.10;;
66585;SDS011;53444;45.822;16.092;2023-11-22T13:59:52;7.35;;;4.25;;
66585;SDS011;53444;45.822;16.092;2023-11-22T14:02:21;8.45;;;4.78;;
66585;SDS011;53444;45.822;16.092;2023-11-22T14:04:48;8.07;;;4.85;;
66585;SDS011;53444;45.822;16.092;2023-11-22T14:07:14;12.00;;;6.75;;
66585;SDS011;53444;45.822;16.092;2023-11-22T14:09:42;7.20;;;4.35;;
66585;SDS011;53444;45.822;16.092;2023-11-22T14:12:12;7.10;;;3.45;;
66585;SDS011;53444;45.822;16.092;2023-11-22T14:14:38;8.27;;;3.90;;
66585;SDS011;53444;45.822;16.092;2023-11-22T14:17:05;14.05;;;6.20;;
66585;SDS011;53444;45.822;16.092;2023-11-22T14:19:33;7.57;;;4.10;;
66585;SDS011;53444;45.822;16.092;2023-11-22T14:22:00;6.38;;;3.90;;
66585;SDS011;53444;45.822;16.092;2023-11-22T14:24:27;6.45;;;4.07;;
66585;SDS011;53444;45.822;16.092;2023-11-22T14:26:55;6.03;;;3.63;;
66585;SDS011;53444;45.822;16.092;2023-11-22T14:29:25;8.88;;;4.43;;
66585;SDS011;53444;45.822;16.092;2023-11-22T14:31:52;6.15;;;3.72;;
66585;SDS011;53444;45.822;16.092;2023-11-22T14:34:19;6.55;;;3.15;;
66585;SDS011;53444;45.822;16.092;2023-11-22T14:36:47;6.20;;;3.28;;
66585;SDS011;53444;45.822;16.092;2023-11-22T14:39:14;3.97;;;2.63;;
66585;SDS011;53444;45.822;16.092;2023-11-22T14:41:41;5.78;;;3.55;;